Subpeak Weather

  • Time Avg. Air Temp Dew Point Avg. Rel Humidity Avg. 2 Min Wind Speed Max Gust Velocity MGV Time MGV Direction Avg. Spot Wind Velocity
    2018-12-13 10:55:00-7° C-7° C93%31 km/h35 km/h10:52:00S30 km/h
    09:55:00-7° C-8° C92%38 km/h44 km/h09:53:00S39 km/h
    08:55:00-7° C-8° C92%42 km/h47 km/h08:52:00SW41 km/h
    07:55:00-7° C-8° C92%39 km/h46 km/h07:52:00S40 km/h
    06:55:00-7° C-8° C92%45 km/h50 km/h06:55:00S45 km/h
    05:55:00-8° C-9° C92%49 km/h53 km/h05:52:00S49 km/h
    04:55:00-8° C-9° C91%33 km/h41 km/h04:53:00S33 km/h
    03:55:00-8° C-9° C91%33 km/h40 km/h03:54:00S33 km/h
    02:55:00-9° C-10° C91%38 km/h48 km/h02:52:00S39 km/h
    01:55:00-9° C-10° C90%25 km/h29 km/h01:54:00S24 km/h
    00:55:00-9° C-10° C90%29 km/h32 km/h00:55:00S29 km/h
    23:55:00-9° C-11° C90%23 km/h32 km/h23:52:00S26 km/h
    22:55:00-10° C-11° C89%29 km/h34 km/h22:54:00S28 km/h
    21:55:00-10° C-11° C89%30 km/h39 km/h21:54:00S30 km/h
    20:55:00-10° C-11° C89%31 km/h38 km/h20:53:00S29 km/h
    19:55:00-10° C-12° C89%28 km/h33 km/h19:52:00S28 km/h
    18:55:00-10° C-12° C89%30 km/h35 km/h18:53:00S32 km/h
    17:55:00-10° C-12° C89%32 km/h38 km/h17:51:00S33 km/h
    16:55:00-10° C-12° C89%28 km/h31 km/h16:51:00S29 km/h
    15:55:00-10° C-12° C88%21 km/h24 km/h15:52:00SW20 km/h
    14:55:00-10° C-12° C88%21 km/h25 km/h14:51:00S20 km/h
    13:55:00-10° C-12° C89%22 km/h25 km/h13:54:00S21 km/h
    12:55:00-10° C-12° C88%21 km/h26 km/h12:52:00W22 km/h
    11:55:00-10° C-12° C88%24 km/h27 km/h11:55:00W23 km/h
  • Time Avg. Air Temp Dew Point Avg. Rel Humidity Avg. 2 Min Wind Speed Max Gust Velocity MGV Time MGV Direction Avg. Spot Wind Velocity
    2018-12-13 10:55:00-7° C-7° C93%31 km/h35 km/h10:52:00S30 km/h
    10:50:00-7° C-7° C93%32 km/h35 km/h10:49:00S32 km/h
    10:45:00-7° C-8° C93%33 km/h37 km/h10:45:00S32 km/h
    10:40:00-7° C-8° C93%32 km/h36 km/h10:36:00S32 km/h
    10:35:00-7° C-7° C93%34 km/h37 km/h10:31:00S34 km/h
    10:30:00-7° C-8° C93%34 km/h39 km/h10:26:00S34 km/h
    10:25:00-7° C-8° C93%36 km/h39 km/h10:23:00S35 km/h
    10:20:00-6° C-7° C93%34 km/h38 km/h10:16:00S34 km/h
    10:15:00-7° C-8° C93%33 km/h40 km/h10:12:00S36 km/h
    10:10:00-7° C-8° C93%36 km/h39 km/h10:07:00S38 km/h
    10:05:00-7° C-8° C93%37 km/h40 km/h10:02:00S38 km/h
    10:00:00-7° C-8° C93%40 km/h45 km/h09:56:00S40 km/h
    09:55:00-7° C-8° C92%38 km/h44 km/h09:53:00S39 km/h

Explore More

Get Revelstoke news, offers, and events via email.